createdAt,value
2023-03-19T00:02:17.070Z,7.97
2023-03-19T00:04:44.396Z,8.07
2023-03-19T00:07:11.509Z,7.86
2023-03-19T00:09:38.264Z,7.73
2023-03-19T00:12:05.495Z,7.56
2023-03-19T00:14:32.256Z,7.60
2023-03-19T00:16:58.889Z,7.59
2023-03-19T00:19:25.972Z,7.52
2023-03-19T00:21:53.093Z,7.58
2023-03-19T00:24:20.821Z,7.61
2023-03-19T00:26:48.077Z,7.60
2023-03-19T00:29:15.012Z,7.42
2023-03-19T00:31:41.925Z,7.53
2023-03-19T00:34:10.003Z,7.48
2023-03-19T00:36:37.573Z,7.46
2023-03-19T00:39:05.094Z,7.57
2023-03-19T00:41:32.501Z,7.49
2023-03-19T00:43:59.591Z,7.46
2023-03-19T00:46:26.631Z,7.30
2023-03-19T00:48:55.793Z,7.23
2023-03-19T00:51:23.912Z,7.22
2023-03-19T00:53:51.730Z,7.22
2023-03-19T00:56:19.211Z,7.15
2023-03-19T00:58:46.415Z,7.13
2023-03-19T01:01:15.867Z,7.14
2023-03-19T01:03:43.140Z,7.13
2023-03-19T01:06:09.845Z,7.13
2023-03-19T01:08:36.796Z,7.23
2023-03-19T01:11:14.415Z,7.14
2023-03-19T01:13:42.521Z,7.12
2023-03-19T01:16:10.082Z,7.09
2023-03-19T01:18:37.167Z,7.06
2023-03-19T01:21:04.176Z,6.88
2023-03-19T01:23:32.015Z,6.93
2023-03-19T01:25:58.768Z,6.76
2023-03-19T01:28:25.536Z,6.84
2023-03-19T01:30:52.548Z,6.94
2023-03-19T01:33:20.786Z,6.86
2023-03-19T01:35:53.798Z,6.82
2023-03-19T01:38:20.508Z,6.70
2023-03-19T01:40:48.755Z,6.65
2023-03-19T01:43:18.744Z,6.70
2023-03-19T01:45:48.060Z,6.84
2023-03-19T01:48:34.300Z,6.83
2023-03-19T01:51:01.668Z,6.81
2023-03-19T01:53:33.191Z,6.67
2023-03-19T01:56:04.265Z,6.60
2023-03-19T01:58:31.460Z,6.64
2023-03-19T02:00:58.609Z,6.60
2023-03-19T02:03:27.072Z,6.67
2023-03-19T02:05:56.555Z,6.62
2023-03-19T02:08:24.904Z,6.57
2023-03-19T02:10:56.096Z,6.80
2023-03-19T02:13:23.756Z,6.68
2023-03-19T02:15:51.943Z,6.61
2023-03-19T02:18:19.129Z,6.75
2023-03-19T02:20:51.309Z,6.73
2023-03-19T02:23:27.686Z,6.78
2023-03-19T02:26:04.462Z,6.88
2023-03-19T02:28:33.667Z,6.87
2023-03-19T02:31:00.722Z,6.82
2023-03-19T02:33:27.892Z,6.80
2023-03-19T02:35:56.813Z,6.81
2023-03-19T02:38:25.930Z,6.79
2023-03-19T02:41:04.795Z,6.83
2023-03-19T02:43:34.446Z,6.86
2023-03-19T02:48:29.152Z,6.73
2023-03-19T02:50:56.308Z,6.90
2023-03-19T02:53:23.584Z,6.80
2023-03-19T02:55:50.816Z,6.90
2023-03-19T02:58:17.890Z,6.96
2023-03-19T03:00:45.528Z,7.03
2023-03-19T03:03:12.804Z,6.96
2023-03-19T03:05:39.533Z,6.98
2023-03-19T03:08:06.308Z,7.01
2023-03-19T03:10:34.078Z,6.86
2023-03-19T03:13:01.852Z,6.88
2023-03-19T03:15:28.720Z,7.03
2023-03-19T03:17:56.961Z,7.16
2023-03-19T03:20:24.982Z,7.09
2023-03-19T03:22:52.127Z,7.17
2023-03-19T03:25:18.876Z,7.14
2023-03-19T03:27:45.803Z,7.08
2023-03-19T03:30:12.934Z,7.14
2023-03-19T03:32:40.424Z,7.19
2023-03-19T03:35:08.560Z,7.08
2023-03-19T03:37:37.027Z,6.87
2023-03-19T03:40:08.463Z,6.92
2023-03-19T03:42:37.545Z,6.85
2023-03-19T03:45:05.246Z,6.75
2023-03-19T03:47:32.469Z,6.91
2023-03-19T03:49:59.425Z,6.95
2023-03-19T03:52:26.598Z,6.94
2023-03-19T03:54:53.243Z,7.07
2023-03-19T03:57:19.892Z,7.07
2023-03-19T03:59:46.657Z,7.10
2023-03-19T04:02:13.395Z,7.13
2023-03-19T04:04:40.198Z,7.24
2023-03-19T04:07:06.956Z,7.21
2023-03-19T04:09:33.779Z,7.11
2023-03-19T04:12:01.160Z,7.10
2023-03-19T04:14:28.438Z,7.07
2023-03-19T04:16:55.135Z,7.05
2023-03-19T04:19:21.908Z,7.10
2023-03-19T04:21:48.654Z,7.11
2023-03-19T04:24:15.321Z,7.19
2023-03-19T04:26:42.528Z,7.19
2023-03-19T04:29:09.724Z,7.10
2023-03-19T04:31:36.524Z,7.19
2023-03-19T04:36:37.710Z,7.22
2023-03-19T04:39:05.201Z,7.20
2023-03-19T04:41:32.709Z,7.17
2023-03-19T04:43:59.436Z,7.26
2023-03-19T04:46:26.191Z,7.30
2023-03-19T04:48:52.942Z,7.30
2023-03-19T04:51:21.599Z,7.25
2023-03-19T04:53:49.598Z,7.29
2023-03-19T04:56:16.747Z,7.32
2023-03-19T04:58:44.106Z,7.35
2023-03-19T05:01:11.353Z,7.35
2023-03-19T05:03:38.324Z,7.21
2023-03-19T05:06:07.264Z,7.18
2023-03-19T05:08:34.081Z,7.32
2023-03-19T05:11:00.940Z,7.26
2023-03-19T05:13:27.664Z,7.14
2023-03-19T05:15:55.716Z,7.22
2023-03-19T05:18:23.156Z,7.16
2023-03-19T05:20:50.229Z,7.16
2023-03-19T05:23:18.131Z,7.14
2023-03-19T05:25:45.171Z,7.14
2023-03-19T05:28:12.477Z,7.22
2023-03-19T05:30:41.180Z,7.23
2023-03-19T05:33:07.937Z,7.30
2023-03-19T05:35:36.104Z,7.27
2023-03-19T05:40:29.369Z,7.37
2023-03-19T05:42:56.038Z,7.49
2023-03-19T05:45:22.704Z,7.52
2023-03-19T05:47:50.324Z,7.59
2023-03-19T05:50:18.545Z,7.62
2023-03-19T05:52:45.469Z,7.66
2023-03-19T05:55:12.420Z,7.71
2023-03-19T05:57:42.640Z,7.76
2023-03-19T06:00:10.114Z,7.79
2023-03-19T06:02:37.341Z,7.86
2023-03-19T06:05:05.234Z,7.87
2023-03-19T06:07:32.245Z,7.81
2023-03-19T06:09:59.051Z,7.89
2023-03-19T06:12:25.767Z,8.03
2023-03-19T06:14:52.394Z,8.06
2023-03-19T06:17:23.641Z,8.03
2023-03-19T06:19:50.476Z,8.10
2023-03-19T06:22:18.325Z,8.13
2023-03-19T06:24:44.986Z,8.40
2023-03-19T06:27:11.820Z,8.50
2023-03-19T06:29:38.441Z,8.56
2023-03-19T06:32:05.488Z,8.66
2023-03-19T06:34:32.207Z,8.74
2023-03-19T06:36:58.892Z,8.77
2023-03-19T06:39:26.239Z,8.79
2023-03-19T06:41:53.157Z,8.83
2023-03-19T06:44:20.468Z,8.86
2023-03-19T06:46:47.622Z,8.92
2023-03-19T06:49:14.553Z,9.00
2023-03-19T06:51:41.731Z,8.98
2023-03-19T06:54:08.826Z,8.98
2023-03-19T06:56:36.299Z,9.06
2023-03-19T06:59:04.616Z,9.10
2023-03-19T07:01:31.688Z,9.12
2023-03-19T07:03:58.490Z,9.27
2023-03-19T07:06:25.213Z,9.28
2023-03-19T07:08:51.972Z,9.29
2023-03-19T07:11:19.001Z,9.33
2023-03-19T07:13:48.887Z,9.41
2023-03-19T07:16:15.713Z,9.45
2023-03-19T07:18:42.666Z,9.45
2023-03-19T07:21:09.300Z,9.51
2023-03-19T07:23:36.144Z,9.53
2023-03-19T07:26:04.359Z,9.53
2023-03-19T07:28:31.918Z,9.60
2023-03-19T07:30:58.681Z,9.77
2023-03-19T07:33:28.466Z,9.90
2023-03-19T07:35:55.182Z,9.88
2023-03-19T07:38:21.831Z,10.00
2023-03-19T07:41:01.476Z,9.90
2023-03-19T07:43:28.753Z,10.05
2023-03-19T07:45:55.558Z,10.15
2023-03-19T07:48:22.321Z,10.13
2023-03-19T07:50:51.857Z,10.25
2023-03-19T07:53:19.515Z,10.23
2023-03-19T07:55:47.536Z,10.29
2023-03-19T07:58:14.196Z,10.30
2023-03-19T08:00:41.265Z,10.39
2023-03-19T08:03:08.192Z,10.31
2023-03-19T08:05:34.899Z,10.50
2023-03-19T08:08:01.959Z,10.33
2023-03-19T08:10:28.770Z,10.56
2023-03-19T08:12:55.448Z,10.38
2023-03-19T08:15:23.668Z,10.52
2023-03-19T08:17:57.869Z,10.46
2023-03-19T08:20:24.638Z,10.25
2023-03-19T08:22:51.488Z,10.40
2023-03-19T08:25:19.354Z,10.56
2023-03-19T08:27:46.133Z,10.42
2023-03-19T08:30:13.228Z,10.60
2023-03-19T08:32:40.059Z,10.54
2023-03-19T08:35:08.488Z,10.51
2023-03-19T08:37:35.450Z,10.45
2023-03-19T08:42:29.296Z,10.76
2023-03-19T08:44:56.288Z,10.74
2023-03-19T08:47:24.597Z,10.74
2023-03-19T08:49:52.390Z,10.88
2023-03-19T08:52:20.041Z,10.84
2023-03-19T08:54:46.727Z,11.01
2023-03-19T08:57:13.475Z,11.00
2023-03-19T08:59:40.301Z,11.26
2023-03-19T09:02:10.658Z,11.29
2023-03-19T09:04:39.222Z,11.22
2023-03-19T09:07:06.704Z,11.43
2023-03-19T09:09:33.448Z,11.57
2023-03-19T09:12:00.248Z,11.83
2023-03-19T09:14:31.156Z,12.01
2023-03-19T09:16:57.923Z,12.45
2023-03-19T09:19:24.838Z,12.47
2023-03-19T09:21:51.818Z,12.78
2023-03-19T09:24:21.627Z,12.43
2023-03-19T09:26:49.688Z,13.13
2023-03-19T09:29:16.948Z,13.17
2023-03-19T09:31:45.022Z,13.14
2023-03-19T09:34:11.970Z,13.44
2023-03-19T09:36:38.620Z,13.63
2023-03-19T09:39:09.266Z,13.34
2023-03-19T09:42:05.716Z,13.52
2023-03-19T09:44:41.426Z,13.10
2023-03-19T09:47:20.276Z,13.47
2023-03-19T09:49:51.591Z,13.46
2023-03-19T09:52:47.270Z,13.45
2023-03-19T09:55:35.350Z,13.61
2023-03-19T09:58:04.851Z,13.70
2023-03-19T10:00:37.222Z,13.93
2023-03-19T10:03:31.169Z,14.07
2023-03-19T10:06:04.474Z,14.92
2023-03-19T10:08:35.042Z,14.98
2023-03-19T10:11:03.488Z,14.90
2023-03-19T10:13:44.796Z,15.01
2023-03-19T10:16:20.281Z,15.00
2023-03-19T10:18:51.275Z,15.63
2023-03-19T10:21:37.600Z,15.29
2023-03-19T10:24:21.954Z,15.00
2023-03-19T10:26:56.903Z,15.31
2023-03-19T10:29:24.808Z,14.98
2023-03-19T10:32:00.903Z,15.23
2023-03-19T10:34:38.027Z,15.66
2023-03-19T10:37:14.059Z,15.33
2023-03-19T10:39:44.528Z,16.17
2023-03-19T10:42:42.390Z,16.43
2023-03-19T10:45:30.352Z,16.68
2023-03-19T10:47:58.407Z,16.88
2023-03-19T10:50:38.596Z,16.80
2023-03-19T10:53:28.399Z,16.94
2023-03-19T10:55:56.854Z,17.51
2023-03-19T10:58:28.471Z,16.37
2023-03-19T11:01:03.579Z,17.45
2023-03-19T11:03:35.492Z,16.17
2023-03-19T11:06:04.524Z,16.21
2023-03-19T11:08:36.544Z,16.77
2023-03-19T11:11:04.459Z,17.12
2023-03-19T11:13:36.339Z,17.09
2023-03-19T11:16:04.436Z,17.76
2023-03-19T11:18:37.578Z,17.73
2023-03-19T11:21:22.094Z,18.01
2023-03-19T11:23:58.236Z,19.19
2023-03-19T11:26:31.552Z,18.49
2023-03-19T11:31:37.747Z,18.94
2023-03-19T11:34:28.805Z,18.66
2023-03-19T11:37:04.517Z,18.97
2023-03-19T11:40:05.017Z,18.48
2023-03-19T11:42:43.347Z,18.89
2023-03-19T11:45:33.908Z,19.58
2023-03-19T11:48:04.569Z,17.87
2023-03-19T11:51:04.461Z,18.26
2023-03-19T11:53:38.497Z,18.31
2023-03-19T11:56:23.290Z,18.50
2023-03-19T11:58:59.124Z,18.24
2023-03-19T12:01:49.328Z,18.89
2023-03-19T12:05:00.830Z,18.54
2023-03-19T12:07:40.947Z,17.16
2023-03-19T12:10:28.943Z,18.34
2023-03-19T12:13:04.587Z,18.49
2023-03-19T12:15:34.602Z,17.41
2023-03-19T12:18:08.050Z,17.80
2023-03-19T12:20:46.954Z,18.70
2023-03-19T12:23:39.324Z,20.29
2023-03-19T12:26:16.165Z,19.68
2023-03-19T12:29:05.021Z,21.36
2023-03-19T12:31:41.557Z,21.60
2023-03-19T12:34:30.169Z,21.39
2023-03-19T12:37:04.855Z,19.81
2023-03-19T12:39:37.480Z,18.94
2023-03-19T12:42:07.804Z,18.91
2023-03-19T12:44:43.710Z,17.85
2023-03-19T12:47:22.849Z,17.70
2023-03-19T12:50:00.305Z,17.38
2023-03-19T12:52:41.622Z,18.32
2023-03-19T12:55:23.387Z,17.44
2023-03-19T12:58:04.669Z,17.67
2023-03-19T13:01:01.442Z,17.52
2023-03-19T13:03:37.820Z,17.40
2023-03-19T13:06:08.840Z,17.69
2023-03-19T13:08:51.532Z,17.78
2023-03-19T13:11:34.806Z,17.20
2023-03-19T13:14:04.586Z,17.53
2023-03-19T13:16:59.174Z,17.47
2023-03-19T13:19:41.560Z,17.22
2023-03-19T13:22:14.028Z,17.54
2023-03-19T13:24:44.749Z,17.44
2023-03-19T13:27:22.392Z,17.89
2023-03-19T13:30:01.566Z,17.83
2023-03-19T13:32:43.227Z,18.01
2023-03-19T13:35:39.915Z,18.31
2023-03-19T13:38:24.592Z,18.97
2023-03-19T13:40:57.246Z,18.52
2023-03-19T13:43:43.204Z,18.78
2023-03-19T13:46:12.025Z,18.46
2023-03-19T13:48:45.416Z,19.15
2023-03-19T13:51:21.986Z,19.18
2023-03-19T13:53:56.533Z,19.26
2023-03-19T13:56:30.330Z,18.98
2023-03-19T13:59:03.562Z,19.38
2023-03-19T14:01:30.218Z,19.21
2023-03-19T14:06:39.154Z,19.71
2023-03-19T14:09:28.839Z,19.94
2023-03-19T14:11:56.462Z,19.30
2023-03-19T14:14:25.188Z,19.47
2023-03-19T14:16:57.025Z,19.37
2023-03-19T14:19:24.823Z,19.53
2023-03-19T14:24:55.902Z,18.42
2023-03-19T14:27:33.062Z,18.16
2023-03-19T14:30:04.713Z,17.93
2023-03-19T14:32:41.021Z,17.84
2023-03-19T14:35:13.252Z,17.34
2023-03-19T14:37:52.345Z,17.24
2023-03-19T14:40:51.941Z,17.18
2023-03-19T14:43:35.467Z,16.91
2023-03-19T14:46:04.654Z,16.91
2023-03-19T14:49:04.992Z,16.59
2023-03-19T14:51:43.978Z,16.41
2023-03-19T14:54:55.990Z,16.62
2023-03-19T14:57:28.494Z,16.56
2023-03-19T14:59:56.023Z,16.45
2023-03-19T15:02:49.064Z,16.60
2023-03-19T15:05:33.314Z,16.72
2023-03-19T15:08:04.674Z,16.73
2023-03-19T15:10:42.163Z,16.50
2023-03-19T15:13:27.577Z,16.44
2023-03-19T15:16:03.958Z,16.37
2023-03-19T15:18:38.668Z,16.17
2023-03-19T15:21:06.513Z,16.20
2023-03-19T15:23:33.327Z,15.99
2023-03-19T15:28:44.665Z,14.66
2023-03-19T15:31:31.146Z,14.40
2023-03-19T15:34:00.299Z,14.03
2023-03-19T15:36:34.371Z,13.84
2023-03-19T15:39:07.861Z,13.96
2023-03-19T15:41:40.982Z,14.29
2023-03-19T15:44:15.915Z,14.75
2023-03-19T15:46:45.628Z,15.63
2023-03-19T15:49:31.000Z,14.55
2023-03-19T15:54:32.626Z,14.59
2023-03-19T15:56:59.508Z,14.22
2023-03-19T15:59:33.656Z,14.29
2023-03-19T16:04:30.284Z,15.21
2023-03-19T16:06:59.178Z,14.83
2023-03-19T16:09:34.423Z,15.92
2023-03-19T16:12:01.761Z,17.14
2023-03-19T16:14:40.386Z,17.95
2023-03-19T16:17:16.107Z,18.53
2023-03-19T16:19:56.730Z,19.06
2023-03-19T16:22:25.698Z,20.18
2023-03-19T16:24:53.943Z,19.92
2023-03-19T16:27:32.080Z,19.25
2023-03-19T16:30:00.733Z,18.59
2023-03-19T16:32:29.901Z,16.80
2023-03-19T16:35:04.721Z,16.40
2023-03-19T16:37:34.615Z,17.48
2023-03-19T16:40:04.829Z,16.32
2023-03-19T16:42:34.164Z,16.15
2023-03-19T16:45:04.707Z,15.50
2023-03-19T16:47:31.427Z,15.27
2023-03-19T16:49:58.046Z,14.98
2023-03-19T16:52:25.346Z,14.71
2023-03-19T16:54:52.428Z,13.93
2023-03-19T16:57:19.836Z,13.98
2023-03-19T16:59:47.544Z,13.71
2023-03-19T17:02:16.220Z,13.97
2023-03-19T17:04:43.474Z,15.32
2023-03-19T17:07:11.263Z,14.86
2023-03-19T17:09:39.421Z,14.02
2023-03-19T17:12:08.657Z,13.77
2023-03-19T17:14:35.788Z,13.51
2023-03-19T17:19:36.120Z,13.12
2023-03-19T17:24:32.726Z,12.85
2023-03-19T17:29:30.665Z,12.64
2023-03-19T17:32:02.115Z,12.56
2023-03-19T17:34:33.392Z,12.45
2023-03-19T17:37:07.695Z,12.34
2023-03-19T17:39:34.419Z,12.30
2023-03-19T17:42:01.222Z,12.16
2023-03-19T17:44:28.335Z,12.07
2023-03-19T17:46:56.288Z,12.03
2023-03-19T17:49:32.922Z,11.96
2023-03-19T17:52:00.449Z,11.90
2023-03-19T17:54:28.077Z,11.89
2023-03-19T17:56:55.939Z,11.70
2023-03-19T17:59:24.030Z,11.68
2023-03-19T18:01:52.278Z,11.58
2023-03-19T18:04:21.406Z,11.56
2023-03-19T18:06:56.075Z,11.48
2023-03-19T18:09:32.966Z,11.35
2023-03-19T18:12:00.643Z,11.30
2023-03-19T18:14:27.699Z,11.16
2023-03-19T18:16:55.128Z,11.13
2023-03-19T18:19:35.646Z,11.06
2023-03-19T18:22:04.838Z,10.99
2023-03-19T18:24:31.542Z,10.92
2023-03-19T18:26:58.193Z,10.90
2023-03-19T18:29:24.972Z,10.93
2023-03-19T18:31:52.376Z,10.86
2023-03-19T18:34:19.714Z,10.84
2023-03-19T18:36:46.473Z,10.76
2023-03-19T18:39:15.670Z,10.63
2023-03-19T18:41:42.877Z,10.53
2023-03-19T18:44:10.068Z,10.56
2023-03-19T18:46:39.311Z,10.46
2023-03-19T18:49:21.915Z,10.51
2023-03-19T18:52:01.757Z,10.43
2023-03-19T18:54:31.655Z,10.39
2023-03-19T18:57:00.977Z,10.44
2023-03-19T18:59:33.567Z,10.23
2023-03-19T19:02:03.843Z,10.30
2023-03-19T19:04:31.461Z,10.24
2023-03-19T19:06:58.386Z,10.18
2023-03-19T19:09:25.187Z,10.18
2023-03-19T19:11:54.460Z,10.16
2023-03-19T19:14:24.305Z,10.08
2023-03-19T19:16:53.233Z,10.08
2023-03-19T19:19:23.344Z,10.01
2023-03-19T19:21:51.295Z,10.12
2023-03-19T19:24:21.878Z,10.11
2023-03-19T19:26:54.211Z,10.05
2023-03-19T19:29:28.451Z,10.08
2023-03-19T19:31:55.827Z,10.11
2023-03-19T19:34:23.326Z,10.01
2023-03-19T19:36:51.182Z,9.93
2023-03-19T19:39:19.276Z,9.88
2023-03-19T19:41:48.479Z,9.94
2023-03-19T19:44:23.007Z,9.92
2023-03-19T19:46:54.088Z,10.01
2023-03-19T19:49:21.885Z,9.98
2023-03-19T19:51:48.979Z,10.05
2023-03-19T19:54:16.259Z,9.96
2023-03-19T19:56:46.239Z,9.96
2023-03-19T19:59:15.499Z,9.96
2023-03-19T20:01:42.307Z,9.88
2023-03-19T20:04:14.995Z,9.92
2023-03-19T20:06:42.016Z,9.85
2023-03-19T20:09:12.498Z,9.77
2023-03-19T20:11:39.366Z,9.70
2023-03-19T20:14:06.125Z,9.62
2023-03-19T20:16:33.006Z,9.72
2023-03-19T20:18:59.876Z,9.57
2023-03-19T20:21:26.786Z,9.44
2023-03-19T20:23:55.639Z,9.41
2023-03-19T20:26:25.224Z,9.40
2023-03-19T20:28:52.385Z,9.29
2023-03-19T20:31:29.643Z,9.20
2023-03-19T20:33:57.701Z,9.18
2023-03-19T20:36:24.952Z,9.13
2023-03-19T20:38:52.724Z,9.19
2023-03-19T20:41:22.424Z,9.27
2023-03-19T20:43:50.673Z,9.30
2023-03-19T20:46:20.660Z,9.23
2023-03-19T20:48:48.119Z,9.10
2023-03-19T20:51:21.778Z,9.16
2023-03-19T20:53:49.948Z,9.16
2023-03-19T20:56:18.938Z,9.25
2023-03-19T20:58:46.178Z,9.23
2023-03-19T21:01:15.996Z,9.15
2023-03-19T21:03:42.706Z,9.16
2023-03-19T21:06:17.801Z,9.10
2023-03-19T21:08:48.237Z,9.08
2023-03-19T21:11:22.808Z,8.99
2023-03-19T21:13:52.827Z,8.96
2023-03-19T21:16:25.909Z,8.93
2023-03-19T21:18:54.098Z,8.82
2023-03-19T21:21:31.534Z,8.77
2023-03-19T21:24:05.253Z,8.81
2023-03-19T21:26:37.536Z,8.73
2023-03-19T21:29:08.696Z,8.70
2023-03-19T21:31:35.829Z,8.68
2023-03-19T21:36:29.269Z,8.62
2023-03-19T21:38:56.485Z,8.50
2023-03-19T21:41:28.596Z,8.53
2023-03-19T21:43:57.907Z,8.49
2023-03-19T21:46:27.890Z,8.48
2023-03-19T21:48:56.635Z,8.41
2023-03-19T21:51:25.469Z,8.44
2023-03-19T21:53:53.070Z,8.49
2023-03-19T21:56:33.550Z,8.59
2023-03-19T21:59:05.034Z,8.58
2023-03-19T22:01:32.267Z,8.63
2023-03-19T22:03:58.976Z,8.49
2023-03-19T22:06:25.824Z,8.53
2023-03-19T22:08:54.324Z,8.54
2023-03-19T22:11:26.986Z,8.55
2023-03-19T22:13:55.659Z,8.64
2023-03-19T22:16:24.846Z,8.64
2023-03-19T22:18:52.870Z,8.69
2023-03-19T22:21:22.105Z,8.74
2023-03-19T22:23:52.214Z,8.64
2023-03-19T22:26:39.846Z,8.61
2023-03-19T22:29:13.361Z,8.65
2023-03-19T22:31:41.178Z,8.57
2023-03-19T22:34:14.989Z,8.61
2023-03-19T22:36:41.662Z,8.56
2023-03-19T22:39:09.285Z,8.57
2023-03-19T22:41:37.977Z,8.52
2023-03-19T22:44:08.252Z,8.67
2023-03-19T22:46:36.045Z,8.71
2023-03-19T22:49:05.054Z,8.72
2023-03-19T22:51:32.302Z,8.67
2023-03-19T22:53:58.996Z,8.57
2023-03-19T22:56:29.436Z,8.46
2023-03-19T22:58:56.823Z,8.43
2023-03-19T23:01:24.234Z,8.38
2023-03-19T23:03:51.182Z,8.42
2023-03-19T23:06:29.764Z,8.45
2023-03-19T23:08:57.554Z,8.45
2023-03-19T23:11:24.825Z,8.43
2023-03-19T23:13:51.686Z,8.41
2023-03-19T23:16:23.797Z,8.38
2023-03-19T23:18:52.703Z,8.35
2023-03-19T23:21:20.178Z,8.37
2023-03-19T23:23:47.166Z,8.29
2023-03-19T23:26:29.886Z,8.30
2023-03-19T23:29:02.240Z,8.29
2023-03-19T23:31:29.451Z,8.34
2023-03-19T23:33:56.279Z,8.35
2023-03-19T23:36:22.936Z,8.38
2023-03-19T23:38:49.650Z,8.28
2023-03-19T23:41:25.166Z,8.26
2023-03-19T23:43:56.032Z,8.19
2023-03-19T23:46:26.048Z,8.16
2023-03-19T23:48:52.781Z,8.20
2023-03-19T23:51:19.496Z,8.25
2023-03-19T23:53:46.503Z,8.24
2023-03-19T23:56:13.229Z,8.26
2023-03-19T23:58:45.517Z,8.33
